sensor_id;sensor_type;location;lat;lon;timestamp;temperature;humidity
3758;DHT22;1894;51.038;13.692;2023-04-25T00:00:06;9.00;99.90
3758;DHT22;1894;51.038;13.692;2023-04-25T00:02:37;9.10;99.90
3758;DHT22;1894;51.038;13.692;2023-04-25T00:05:05;9.20;99.90
3758;DHT22;1894;51.038;13.692;2023-04-25T00:07:34;9.30;99.90
3758;DHT22;1894;51.038;13.692;2023-04-25T00:10:01;9.30;99.90
3758;DHT22;1894;51.038;13.692;2023-04-25T00:12:29;9.40;99.90
3758;DHT22;1894;51.038;13.692;2023-04-25T00:14:56;9.40;99.90
3758;DHT22;1894;51.038;13.692;2023-04-25T00:17:26;9.40;99.90
3758;DHT22;1894;51.038;13.692;2023-04-25T00:19:54;9.50;99.90
3758;DHT22;1894;51.038;13.692;2023-04-25T00:22:21;9.50;99.90
3758;DHT22;1894;51.038;13.692;2023-04-25T00:24:48;9.40;99.90
3758;DHT22;1894;51.038;13.692;2023-04-25T00:27:15;9.40;99.90
3758;DHT22;1894;51.038;13.692;2023-04-25T00:29:42;9.40;99.90
3758;DHT22;1894;51.038;13.692;2023-04-25T00:32:10;9.30;99.90
3758;DHT22;1894;51.038;13.692;2023-04-25T00:34:37;9.20;99.90
3758;DHT22;1894;51.038;13.692;2023-04-25T00:37:04;9.00;99.90
3758;DHT22;1894;51.038;13.692;2023-04-25T00:39:32;9.00;99.90
3758;DHT22;1894;51.038;13.692;2023-04-25T00:42:00;9.00;99.90
3758;DHT22;1894;51.038;13.692;2023-04-25T00:44:29;8.90;99.90
3758;DHT22;1894;51.038;13.692;2023-04-25T00:47:00;8.90;99.90
3758;DHT22;1894;51.038;13.692;2023-04-25T00:49:29;8.90;99.90
3758;DHT22;1894;51.038;13.692;2023-04-25T00:51:56;8.80;99.90
3758;DHT22;1894;51.038;13.692;2023-04-25T00:54:23;8.70;99.90
3758;DHT22;1894;51.038;13.692;2023-04-25T00:56:52;8.70;99.90
3758;DHT22;1894;51.038;13.692;2023-04-25T00:59:20;8.60;99.90
3758;DHT22;1894;51.038;13.692;2023-04-25T01:01:48;8.50;99.90
3758;DHT22;1894;51.038;13.692;2023-04-25T01:04:15;8.40;99.90
3758;DHT22;1894;51.038;13.692;2023-04-25T01:06:42;8.40;99.90
3758;DHT22;1894;51.038;13.692;2023-04-25T01:09:10;8.40;99.90
3758;DHT22;1894;51.038;13.692;2023-04-25T01:11:37;8.40;99.90
3758;DHT22;1894;51.038;13.692;2023-04-25T01:14:07;8.30;99.90
3758;DHT22;1894;51.038;13.692;2023-04-25T01:16:34;8.30;99.90
3758;DHT22;1894;51.038;13.692;2023-04-25T01:19:08;8.20;99.90
3758;DHT22;1894;51.038;13.692;2023-04-25T01:21:39;8.20;99.90
3758;DHT22;1894;51.038;13.692;2023-04-25T01:24:07;8.10;99.90
3758;DHT22;1894;51.038;13.692;2023-04-25T01:26:36;8.10;99.90
3758;DHT22;1894;51.038;13.692;2023-04-25T01:29:07;8.10;99.90
3758;DHT22;1894;51.038;13.692;2023-04-25T01:31:35;8.00;99.90
3758;DHT22;1894;51.038;13.692;2023-04-25T01:34:04;8.00;99.90
3758;DHT22;1894;51.038;13.692;2023-04-25T01:36:32;8.00;99.90
3758;DHT22;1894;51.038;13.692;2023-04-25T01:39:00;8.00;99.90
3758;DHT22;1894;51.038;13.692;2023-04-25T01:41:27;7.90;99.90
3758;DHT22;1894;51.038;13.692;2023-04-25T01:43:55;7.90;99.90
3758;DHT22;1894;51.038;13.692;2023-04-25T01:46:23;7.80;99.90
3758;DHT22;1894;51.038;13.692;2023-04-25T01:48:50;7.80;99.90
3758;DHT22;1894;51.038;13.692;2023-04-25T01:51:17;7.70;99.90
3758;DHT22;1894;51.038;13.692;2023-04-25T01:53:45;7.70;99.90
3758;DHT22;1894;51.038;13.692;2023-04-25T01:56:25;7.60;99.90
3758;DHT22;1894;51.038;13.692;2023-04-25T01:59:04;7.60;99.90
3758;DHT22;1894;51.038;13.692;2023-04-25T02:02:10;7.60;99.90
3758;DHT22;1894;51.038;13.692;2023-04-25T02:04:38;7.60;99.90
3758;DHT22;1894;51.038;13.692;2023-04-25T02:07:05;7.50;99.90
3758;DHT22;1894;51.038;13.692;2023-04-25T02:09:47;7.50;99.90
3758;DHT22;1894;51.038;13.692;2023-04-25T02:12:16;7.40;99.90
3758;DHT22;1894;51.038;13.692;2023-04-25T02:15:00;7.40;99.90
3758;DHT22;1894;51.038;13.692;2023-04-25T02:17:57;7.40;99.90
3758;DHT22;1894;51.038;13.692;2023-04-25T02:20:25;7.40;99.90
3758;DHT22;1894;51.038;13.692;2023-04-25T02:22:52;7.40;99.90
3758;DHT22;1894;51.038;13.692;2023-04-25T02:25:20;7.30;99.90
3758;DHT22;1894;51.038;13.692;2023-04-25T02:27:47;7.30;99.90
3758;DHT22;1894;51.038;13.692;2023-04-25T02:30:15;7.30;99.90
3758;DHT22;1894;51.038;13.692;2023-04-25T02:32:42;7.20;99.90
3758;DHT22;1894;51.038;13.692;2023-04-25T02:35:10;7.20;99.90
3758;DHT22;1894;51.038;13.692;2023-04-25T02:37:38;7.20;99.90
3758;DHT22;1894;51.038;13.692;2023-04-25T02:40:07;7.10;99.90
3758;DHT22;1894;51.038;13.692;2023-04-25T02:42:35;7.10;99.90
3758;DHT22;1894;51.038;13.692;2023-04-25T02:45:02;7.10;99.90
3758;DHT22;1894;51.038;13.692;2023-04-25T02:47:30;7.00;99.90
3758;DHT22;1894;51.038;13.692;2023-04-25T02:49:58;7.00;99.90
3758;DHT22;1894;51.038;13.692;2023-04-25T02:52:25;7.00;99.90
3758;DHT22;1894;51.038;13.692;2023-04-25T02:55:00;7.00;99.90
3758;DHT22;1894;51.038;13.692;2023-04-25T02:57:28;7.00;99.90
3758;DHT22;1894;51.038;13.692;2023-04-25T03:00:04;7.00;99.90
3758;DHT22;1894;51.038;13.692;2023-04-25T03:02:40;6.90;99.90
3758;DHT22;1894;51.038;13.692;2023-04-25T03:05:07;6.90;99.90
3758;DHT22;1894;51.038;13.692;2023-04-25T03:07:36;6.90;99.90
3758;DHT22;1894;51.038;13.692;2023-04-25T03:10:03;6.80;99.90
3758;DHT22;1894;51.038;13.692;2023-04-25T03:12:33;6.80;99.90
3758;DHT22;1894;51.038;13.692;2023-04-25T03:15:00;6.70;99.90
3758;DHT22;1894;51.038;13.692;2023-04-25T03:17:28;6.70;99.90
3758;DHT22;1894;51.038;13.692;2023-04-25T03:19:55;6.70;99.90
3758;DHT22;1894;51.038;13.692;2023-04-25T03:22:22;6.70;99.90
3758;DHT22;1894;51.038;13.692;2023-04-25T03:24:51;6.70;99.90
3758;DHT22;1894;51.038;13.692;2023-04-25T03:27:19;6.60;99.90
3758;DHT22;1894;51.038;13.692;2023-04-25T03:29:47;6.60;99.90
3758;DHT22;1894;51.038;13.692;2023-04-25T03:32:14;6.70;99.90
3758;DHT22;1894;51.038;13.692;2023-04-25T03:34:41;6.60;99.90
3758;DHT22;1894;51.038;13.692;2023-04-25T03:37:09;6.70;99.90
3758;DHT22;1894;51.038;13.692;2023-04-25T03:39:37;6.70;99.90
3758;DHT22;1894;51.038;13.692;2023-04-25T03:42:06;6.60;99.90
3758;DHT22;1894;51.038;13.692;2023-04-25T03:44:33;6.60;99.90
3758;DHT22;1894;51.038;13.692;2023-04-25T03:47:00;6.50;99.90
3758;DHT22;1894;51.038;13.692;2023-04-25T03:49:28;6.50;99.90
3758;DHT22;1894;51.038;13.692;2023-04-25T03:51:59;6.50;99.90
3758;DHT22;1894;51.038;13.692;2023-04-25T03:54:30;6.50;99.90
3758;DHT22;1894;51.038;13.692;2023-04-25T03:57:03;6.50;99.90
3758;DHT22;1894;51.038;13.692;2023-04-25T03:59:34;6.50;99.90
3758;DHT22;1894;51.038;13.692;2023-04-25T04:02:02;6.50;99.90
3758;DHT22;1894;51.038;13.692;2023-04-25T04:04:32;6.50;99.90
3758;DHT22;1894;51.038;13.692;2023-04-25T04:07:00;6.40;99.90
3758;DHT22;1894;51.038;13.692;2023-04-25T04:09:31;6.40;99.90
3758;DHT22;1894;51.038;13.692;2023-04-25T04:12:00;6.40;99.90
3758;DHT22;1894;51.038;13.692;2023-04-25T04:14:30;6.50;99.90
3758;DHT22;1894;51.038;13.692;2023-04-25T04:17:07;6.50;99.90
3758;DHT22;1894;51.038;13.692;2023-04-25T04:19:37;6.40;99.90
3758;DHT22;1894;51.038;13.692;2023-04-25T04:22:10;6.40;99.90
3758;DHT22;1894;51.038;13.692;2023-04-25T04:24:39;6.50;99.90
3758;DHT22;1894;51.038;13.692;2023-04-25T04:27:07;6.50;99.90
3758;DHT22;1894;51.038;13.692;2023-04-25T04:29:45;6.60;99.90
3758;DHT22;1894;51.038;13.692;2023-04-25T04:32:23;6.60;99.90
3758;DHT22;1894;51.038;13.692;2023-04-25T04:34:53;6.70;99.90
3758;DHT22;1894;51.038;13.692;2023-04-25T04:37:22;6.70;99.90
3758;DHT22;1894;51.038;13.692;2023-04-25T04:39:51;6.80;99.90
3758;DHT22;1894;51.038;13.692;2023-04-25T04:42:30;6.70;99.90
3758;DHT22;1894;51.038;13.692;2023-04-25T04:44:58;6.70;99.90
3758;DHT22;1894;51.038;13.692;2023-04-25T04:47:39;6.80;99.90
3758;DHT22;1894;51.038;13.692;2023-04-25T04:50:15;6.90;99.90
3758;DHT22;1894;51.038;13.692;2023-04-25T04:53:04;6.90;99.90
3758;DHT22;1894;51.038;13.692;2023-04-25T04:55:40;7.00;99.90
3758;DHT22;1894;51.038;13.692;2023-04-25T04:58:26;7.00;99.90
3758;DHT22;1894;51.038;13.692;2023-04-25T05:01:16;7.00;99.90
3758;DHT22;1894;51.038;13.692;2023-04-25T05:04:03;7.10;99.90
3758;DHT22;1894;51.038;13.692;2023-04-25T05:06:46;7.20;99.90
3758;DHT22;1894;51.038;13.692;2023-04-25T05:09:33;7.40;99.90
3758;DHT22;1894;51.038;13.692;2023-04-25T05:12:38;7.70;99.90
3758;DHT22;1894;51.038;13.692;2023-04-25T05:15:30;7.90;99.90
3758;DHT22;1894;51.038;13.692;2023-04-25T05:18:16;8.00;99.90
3758;DHT22;1894;51.038;13.692;2023-04-25T05:21:06;8.10;99.90
3758;DHT22;1894;51.038;13.692;2023-04-25T05:23:39;8.30;99.90
3758;DHT22;1894;51.038;13.692;2023-04-25T05:26:32;8.10;99.90
3758;DHT22;1894;51.038;13.692;2023-04-25T05:29:22;8.30;99.90
3758;DHT22;1894;51.038;13.692;2023-04-25T05:32:27;8.40;99.90
3758;DHT22;1894;51.038;13.692;2023-04-25T05:34:55;8.40;99.90
3758;DHT22;1894;51.038;13.692;2023-04-25T05:37:34;8.50;99.90
3758;DHT22;1894;51.038;13.692;2023-04-25T05:40:09;8.70;99.90
3758;DHT22;1894;51.038;13.692;2023-04-25T05:42:55;8.90;99.90
3758;DHT22;1894;51.038;13.692;2023-04-25T05:45:45;9.10;99.90
3758;DHT22;1894;51.038;13.692;2023-04-25T05:48:30;9.10;99.90
3758;DHT22;1894;51.038;13.692;2023-04-25T05:51:09;9.10;99.90
3758;DHT22;1894;51.038;13.692;2023-04-25T05:54:05;9.30;99.90
3758;DHT22;1894;51.038;13.692;2023-04-25T05:56:33;9.10;99.90
3758;DHT22;1894;51.038;13.692;2023-04-25T05:59:00;9.20;99.90
3758;DHT22;1894;51.038;13.692;2023-04-25T06:01:27;9.30;99.90
3758;DHT22;1894;51.038;13.692;2023-04-25T06:03:55;9.60;99.90
3758;DHT22;1894;51.038;13.692;2023-04-25T06:06:23;9.50;99.90
3758;DHT22;1894;51.038;13.692;2023-04-25T06:08:50;9.50;99.90
3758;DHT22;1894;51.038;13.692;2023-04-25T06:11:17;9.50;99.90
3758;DHT22;1894;51.038;13.692;2023-04-25T06:13:45;9.50;99.90
3758;DHT22;1894;51.038;13.692;2023-04-25T06:16:14;9.30;99.90
3758;DHT22;1894;51.038;13.692;2023-04-25T06:18:42;9.60;99.90
3758;DHT22;1894;51.038;13.692;2023-04-25T06:21:09;9.60;99.90
3758;DHT22;1894;51.038;13.692;2023-04-25T06:23:36;9.50;99.90
3758;DHT22;1894;51.038;13.692;2023-04-25T06:26:06;9.40;99.90
3758;DHT22;1894;51.038;13.692;2023-04-25T06:28:36;9.50;99.90
3758;DHT22;1894;51.038;13.692;2023-04-25T06:31:04;9.40;99.90
3758;DHT22;1894;51.038;13.692;2023-04-25T06:33:31;9.30;99.90
3758;DHT22;1894;51.038;13.692;2023-04-25T06:35:59;9.50;99.90
3758;DHT22;1894;51.038;13.692;2023-04-25T06:38:27;9.60;99.90
3758;DHT22;1894;51.038;13.692;2023-04-25T06:40:56;9.80;99.90
3758;DHT22;1894;51.038;13.692;2023-04-25T06:43:26;9.80;99.90
3758;DHT22;1894;51.038;13.692;2023-04-25T06:46:22;10.00;99.90
3758;DHT22;1894;51.038;13.692;2023-04-25T06:48:49;10.20;99.90
3758;DHT22;1894;51.038;13.692;2023-04-25T06:51:18;10.30;99.90
3758;DHT22;1894;51.038;13.692;2023-04-25T06:53:48;10.10;99.90
3758;DHT22;1894;51.038;13.692;2023-04-25T06:56:25;10.10;99.90
3758;DHT22;1894;51.038;13.692;2023-04-25T06:59:00;10.50;99.90
3758;DHT22;1894;51.038;13.692;2023-04-25T07:01:36;10.60;99.90
3758;DHT22;1894;51.038;13.692;2023-04-25T07:04:08;10.40;99.90
3758;DHT22;1894;51.038;13.692;2023-04-25T07:06:40;10.50;99.90
3758;DHT22;1894;51.038;13.692;2023-04-25T07:09:11;10.60;99.90
3758;DHT22;1894;51.038;13.692;2023-04-25T07:11:41;10.40;99.90
3758;DHT22;1894;51.038;13.692;2023-04-25T07:14:08;10.20;99.90
3758;DHT22;1894;51.038;13.692;2023-04-25T07:16:35;10.30;99.90
3758;DHT22;1894;51.038;13.692;2023-04-25T07:19:03;10.00;99.90
3758;DHT22;1894;51.038;13.692;2023-04-25T07:21:30;10.30;99.90
3758;DHT22;1894;51.038;13.692;2023-04-25T07:24:01;10.50;99.90
3758;DHT22;1894;51.038;13.692;2023-04-25T07:26:33;10.80;99.60
3758;DHT22;1894;51.038;13.692;2023-04-25T07:29:17;10.70;99.90
3758;DHT22;1894;51.038;13.692;2023-04-25T07:31:44;11.00;99.40
3758;DHT22;1894;51.038;13.692;2023-04-25T07:34:12;10.90;98.80
3758;DHT22;1894;51.038;13.692;2023-04-25T07:36:43;11.20;97.30
3758;DHT22;1894;51.038;13.692;2023-04-25T07:39:12;10.80;97.20
3758;DHT22;1894;51.038;13.692;2023-04-25T07:41:39;11.00;97.40
3758;DHT22;1894;51.038;13.692;2023-04-25T07:44:11;11.40;96.90
3758;DHT22;1894;51.038;13.692;2023-04-25T07:46:39;11.60;95.80
3758;DHT22;1894;51.038;13.692;2023-04-25T07:49:08;11.60;94.90
3758;DHT22;1894;51.038;13.692;2023-04-25T07:51:35;11.20;96.10
3758;DHT22;1894;51.038;13.692;2023-04-25T07:54:07;11.40;95.70
3758;DHT22;1894;51.038;13.692;2023-04-25T07:56:41;10.80;96.00
3758;DHT22;1894;51.038;13.692;2023-04-25T07:59:19;11.20;95.10
3758;DHT22;1894;51.038;13.692;2023-04-25T08:01:47;11.40;94.70
3758;DHT22;1894;51.038;13.692;2023-04-25T08:04:16;11.80;93.70
3758;DHT22;1894;51.038;13.692;2023-04-25T08:06:54;12.20;93.00
3758;DHT22;1894;51.038;13.692;2023-04-25T08:09:25;12.20;93.00
3758;DHT22;1894;51.038;13.692;2023-04-25T08:11:54;12.10;93.30
3758;DHT22;1894;51.038;13.692;2023-04-25T08:14:27;12.10;92.80
3758;DHT22;1894;51.038;13.692;2023-04-25T08:16:55;12.30;92.80
3758;DHT22;1894;51.038;13.692;2023-04-25T08:19:24;12.10;93.20
3758;DHT22;1894;51.038;13.692;2023-04-25T08:21:51;12.30;93.10
3758;DHT22;1894;51.038;13.692;2023-04-25T08:24:26;12.10;93.20
3758;DHT22;1894;51.038;13.692;2023-04-25T08:26:53;11.60;93.70
3758;DHT22;1894;51.038;13.692;2023-04-25T08:29:24;11.50;93.90
3758;DHT22;1894;51.038;13.692;2023-04-25T08:31:53;11.90;93.40
3758;DHT22;1894;51.038;13.692;2023-04-25T08:34:20;11.80;93.60
3758;DHT22;1894;51.038;13.692;2023-04-25T08:36:49;12.00;93.90
3758;DHT22;1894;51.038;13.692;2023-04-25T08:39:26;12.00;94.10
3758;DHT22;1894;51.038;13.692;2023-04-25T08:42:12;11.70;94.70
3758;DHT22;1894;51.038;13.692;2023-04-25T08:44:39;11.50;95.00
3758;DHT22;1894;51.038;13.692;2023-04-25T08:47:06;11.40;95.10
3758;DHT22;1894;51.038;13.692;2023-04-25T08:49:45;11.40;94.80
3758;DHT22;1894;51.038;13.692;2023-04-25T08:52:14;10.90;95.70
3758;DHT22;1894;51.038;13.692;2023-04-25T08:54:48;10.90;96.80
3758;DHT22;1894;51.038;13.692;2023-04-25T08:57:18;11.20;96.00
3758;DHT22;1894;51.038;13.692;2023-04-25T08:59:47;11.30;95.80
3758;DHT22;1894;51.038;13.692;2023-04-25T09:02:17;11.40;96.20
3758;DHT22;1894;51.038;13.692;2023-04-25T09:04:49;11.70;96.00
3758;DHT22;1894;51.038;13.692;2023-04-25T09:07:17;11.80;95.40
3758;DHT22;1894;51.038;13.692;2023-04-25T09:09:48;11.40;96.10
3758;DHT22;1894;51.038;13.692;2023-04-25T09:12:21;11.40;96.20
3758;DHT22;1894;51.038;13.692;2023-04-25T09:18:07;10.90;97.10
3758;DHT22;1894;51.038;13.692;2023-04-25T09:20:43;10.70;97.70
3758;DHT22;1894;51.038;13.692;2023-04-25T09:23:30;10.50;99.40
3758;DHT22;1894;51.038;13.692;2023-04-25T09:25:58;11.10;98.60
3758;DHT22;1894;51.038;13.692;2023-04-25T09:28:26;11.40;97.30
3758;DHT22;1894;51.038;13.692;2023-04-25T09:30:58;11.30;96.40
3758;DHT22;1894;51.038;13.692;2023-04-25T09:33:34;11.30;96.20
3758;DHT22;1894;51.038;13.692;2023-04-25T09:36:08;10.80;96.90
3758;DHT22;1894;51.038;13.692;2023-04-25T09:38:46;10.90;97.70
3758;DHT22;1894;51.038;13.692;2023-04-25T09:41:25;10.70;97.90
3758;DHT22;1894;51.038;13.692;2023-04-25T09:43:57;10.30;98.40
3758;DHT22;1894;51.038;13.692;2023-04-25T09:46:36;10.00;99.90
3758;DHT22;1894;51.038;13.692;2023-04-25T09:49:07;10.00;99.90
3758;DHT22;1894;51.038;13.692;2023-04-25T09:51:58;10.30;99.90
3758;DHT22;1894;51.038;13.692;2023-04-25T09:54:50;10.40;99.90
3758;DHT22;1894;51.038;13.692;2023-04-25T09:57:24;10.70;99.80
3758;DHT22;1894;51.038;13.692;2023-04-25T09:59:55;11.00;99.70
3758;DHT22;1894;51.038;13.692;2023-04-25T10:02:25;11.50;98.90
3758;DHT22;1894;51.038;13.692;2023-04-25T10:05:00;11.70;97.40
3758;DHT22;1894;51.038;13.692;2023-04-25T10:07:38;11.80;97.00
3758;DHT22;1894;51.038;13.692;2023-04-25T10:10:13;12.10;97.20
3758;DHT22;1894;51.038;13.692;2023-04-25T10:12:41;12.10;97.00
3758;DHT22;1894;51.038;13.692;2023-04-25T10:15:11;12.10;95.50
3758;DHT22;1894;51.038;13.692;2023-04-25T10:17:38;12.30;95.90
3758;DHT22;1894;51.038;13.692;2023-04-25T10:20:07;12.10;94.80
3758;DHT22;1894;51.038;13.692;2023-04-25T10:22:42;12.20;95.70
3758;DHT22;1894;51.038;13.692;2023-04-25T10:25:11;11.80;96.50
3758;DHT22;1894;51.038;13.692;2023-04-25T10:27:39;12.30;95.90
3758;DHT22;1894;51.038;13.692;2023-04-25T10:30:13;12.60;95.40
3758;DHT22;1894;51.038;13.692;2023-04-25T10:32:43;12.90;94.70
3758;DHT22;1894;51.038;13.692;2023-04-25T10:35:19;13.00;94.30
3758;DHT22;1894;51.038;13.692;2023-04-25T10:40:30;12.60;95.20
3758;DHT22;1894;51.038;13.692;2023-04-25T10:45:59;12.80;95.10
3758;DHT22;1894;51.038;13.692;2023-04-25T10:48:28;11.40;96.00
3758;DHT22;1894;51.038;13.692;2023-04-25T10:53:47;11.00;98.40
3758;DHT22;1894;51.038;13.692;2023-04-25T10:56:41;10.50;99.90
3758;DHT22;1894;51.038;13.692;2023-04-25T10:59:14;10.50;99.90
3758;DHT22;1894;51.038;13.692;2023-04-25T11:01:51;10.60;99.90
3758;DHT22;1894;51.038;13.692;2023-04-25T11:04:31;10.70;99.90
3758;DHT22;1894;51.038;13.692;2023-04-25T11:09:56;10.50;99.90
3758;DHT22;1894;51.038;13.692;2023-04-25T11:12:24;10.30;99.90
3758;DHT22;1894;51.038;13.692;2023-04-25T11:14:59;10.60;99.90
3758;DHT22;1894;51.038;13.692;2023-04-25T11:17:28;10.50;99.90
3758;DHT22;1894;51.038;13.692;2023-04-25T11:19:56;10.80;99.90
3758;DHT22;1894;51.038;13.692;2023-04-25T11:22:24;10.70;99.90
3758;DHT22;1894;51.038;13.692;2023-04-25T11:24:51;10.50;99.90
3758;DHT22;1894;51.038;13.692;2023-04-25T11:27:18;10.30;99.90
3758;DHT22;1894;51.038;13.692;2023-04-25T11:29:46;10.60;99.90
3758;DHT22;1894;51.038;13.692;2023-04-25T11:32:15;10.90;99.90
3758;DHT22;1894;51.038;13.692;2023-04-25T11:34:46;11.00;99.90
3758;DHT22;1894;51.038;13.692;2023-04-25T11:37:14;10.80;99.60
3758;DHT22;1894;51.038;13.692;2023-04-25T11:39:45;11.00;99.40
3758;DHT22;1894;51.038;13.692;2023-04-25T11:42:15;11.30;99.30
3758;DHT22;1894;51.038;13.692;2023-04-25T11:44:42;11.50;97.90
3758;DHT22;1894;51.038;13.692;2023-04-25T11:47:10;11.70;97.70
3758;DHT22;1894;51.038;13.692;2023-04-25T11:49:37;11.80;98.20
3758;DHT22;1894;51.038;13.692;2023-04-25T11:52:06;12.30;97.80
3758;DHT22;1894;51.038;13.692;2023-04-25T11:54:37;12.40;97.40
3758;DHT22;1894;51.038;13.692;2023-04-25T11:57:04;12.40;96.30
3758;DHT22;1894;51.038;13.692;2023-04-25T11:59:32;12.40;96.00
3758;DHT22;1894;51.038;13.692;2023-04-25T12:01:59;12.30;96.40
3758;DHT22;1894;51.038;13.692;2023-04-25T12:04:30;12.30;95.70
3758;DHT22;1894;51.038;13.692;2023-04-25T12:06:59;11.60;95.60
3758;DHT22;1894;51.038;13.692;2023-04-25T12:09:30;11.60;95.90
3758;DHT22;1894;51.038;13.692;2023-04-25T12:11:59;11.50;95.60
3758;DHT22;1894;51.038;13.692;2023-04-25T12:14:32;11.00;96.40
3758;DHT22;1894;51.038;13.692;2023-04-25T12:17:03;10.80;97.90
3758;DHT22;1894;51.038;13.692;2023-04-25T12:19:36;10.50;98.40
3758;DHT22;1894;51.038;13.692;2023-04-25T12:22:23;10.60;98.80
3758;DHT22;1894;51.038;13.692;2023-04-25T12:24:51;10.50;98.40
3758;DHT22;1894;51.038;13.692;2023-04-25T12:27:20;10.80;98.00
3758;DHT22;1894;51.038;13.692;2023-04-25T12:29:55;10.80;97.40
3758;DHT22;1894;51.038;13.692;2023-04-25T12:32:23;11.00;96.50
3758;DHT22;1894;51.038;13.692;2023-04-25T12:34:51;11.90;94.40
3758;DHT22;1894;51.038;13.692;2023-04-25T12:37:19;12.90;93.10
3758;DHT22;1894;51.038;13.692;2023-04-25T12:39:46;14.50;87.30
3758;DHT22;1894;51.038;13.692;2023-04-25T12:42:13;15.30;83.50
3758;DHT22;1894;51.038;13.692;2023-04-25T12:44:40;15.70;79.80
3758;DHT22;1894;51.038;13.692;2023-04-25T12:47:09;14.80;78.30
3758;DHT22;1894;51.038;13.692;2023-04-25T12:49:37;13.00;81.80
3758;DHT22;1894;51.038;13.692;2023-04-25T12:52:04;12.60;84.60
3758;DHT22;1894;51.038;13.692;2023-04-25T12:54:31;12.50;83.70
3758;DHT22;1894;51.038;13.692;2023-04-25T12:56:58;12.30;85.00
3758;DHT22;1894;51.038;13.692;2023-04-25T12:59:25;11.90;86.80
3758;DHT22;1894;51.038;13.692;2023-04-25T13:01:53;11.90;86.60
3758;DHT22;1894;51.038;13.692;2023-04-25T13:04:20;11.50;88.40
3758;DHT22;1894;51.038;13.692;2023-04-25T13:06:48;11.20;90.30
3758;DHT22;1894;51.038;13.692;2023-04-25T13:09:15;11.20;90.50
3758;DHT22;1894;51.038;13.692;2023-04-25T13:11:42;11.00;90.90
3758;DHT22;1894;51.038;13.692;2023-04-25T13:14:10;11.00;91.30
3758;DHT22;1894;51.038;13.692;2023-04-25T13:16:37;10.90;91.20
3758;DHT22;1894;51.038;13.692;2023-04-25T13:19:04;10.50;92.70
3758;DHT22;1894;51.038;13.692;2023-04-25T13:21:34;10.50;93.00
3758;DHT22;1894;51.038;13.692;2023-04-25T13:24:01;10.50;93.70
3758;DHT22;1894;51.038;13.692;2023-04-25T13:26:28;10.60;93.90
3758;DHT22;1894;51.038;13.692;2023-04-25T13:28:56;10.60;95.00
3758;DHT22;1894;51.038;13.692;2023-04-25T13:31:23;10.60;95.80
3758;DHT22;1894;51.038;13.692;2023-04-25T13:33:51;10.00;96.90
3758;DHT22;1894;51.038;13.692;2023-04-25T13:36:19;9.60;94.30
3758;DHT22;1894;51.038;13.692;2023-04-25T13:38:46;9.70;93.80
3758;DHT22;1894;51.038;13.692;2023-04-25T13:41:16;9.60;93.30
3758;DHT22;1894;51.038;13.692;2023-04-25T13:43:46;9.40;93.70
3758;DHT22;1894;51.038;13.692;2023-04-25T13:46:15;9.50;94.00
3758;DHT22;1894;51.038;13.692;2023-04-25T13:49:03;9.50;93.60
3758;DHT22;1894;51.038;13.692;2023-04-25T13:51:38;9.60;93.50
3758;DHT22;1894;51.038;13.692;2023-04-25T13:54:06;9.70;93.60
3758;DHT22;1894;51.038;13.692;2023-04-25T13:56:33;9.80;92.80
3758;DHT22;1894;51.038;13.692;2023-04-25T13:59:00;9.90;92.90
3758;DHT22;1894;51.038;13.692;2023-04-25T14:01:27;9.90;93.30
3758;DHT22;1894;51.038;13.692;2023-04-25T14:03:57;9.80;93.30
3758;DHT22;1894;51.038;13.692;2023-04-25T14:06:24;9.80;92.70
3758;DHT22;1894;51.038;13.692;2023-04-25T14:08:52;10.00;92.20
3758;DHT22;1894;51.038;13.692;2023-04-25T14:11:19;9.50;93.10
3758;DHT22;1894;51.038;13.692;2023-04-25T14:13:46;9.80;93.00
3758;DHT22;1894;51.038;13.692;2023-04-25T14:16:16;9.80;92.50
3758;DHT22;1894;51.038;13.692;2023-04-25T14:18:44;10.10;92.00
3758;DHT22;1894;51.038;13.692;2023-04-25T14:21:11;10.30;91.90
3758;DHT22;1894;51.038;13.692;2023-04-25T14:23:38;10.30;91.80
3758;DHT22;1894;51.038;13.692;2023-04-25T14:26:05;10.70;91.70
3758;DHT22;1894;51.038;13.692;2023-04-25T14:28:32;11.00;91.30
3758;DHT22;1894;51.038;13.692;2023-04-25T14:30:59;11.50;90.70
3758;DHT22;1894;51.038;13.692;2023-04-25T14:33:27;12.30;89.10
3758;DHT22;1894;51.038;13.692;2023-04-25T14:35:54;12.80;86.10
3758;DHT22;1894;51.038;13.692;2023-04-25T14:38:22;13.60;83.30
3758;DHT22;1894;51.038;13.692;2023-04-25T14:40:52;15.60;79.00
3758;DHT22;1894;51.038;13.692;2023-04-25T14:43:20;15.40;74.10
3758;DHT22;1894;51.038;13.692;2023-04-25T14:45:47;14.30;73.50
3758;DHT22;1894;51.038;13.692;2023-04-25T14:48:15;13.90;75.80
3758;DHT22;1894;51.038;13.692;2023-04-25T14:50:43;13.00;76.10
3758;DHT22;1894;51.038;13.692;2023-04-25T14:53:10;12.60;78.40
3758;DHT22;1894;51.038;13.692;2023-04-25T14:55:38;12.90;77.40
3758;DHT22;1894;51.038;13.692;2023-04-25T14:58:05;11.70;80.20
3758;DHT22;1894;51.038;13.692;2023-04-25T15:00:32;11.60;81.30
3758;DHT22;1894;51.038;13.692;2023-04-25T15:02:59;11.80;83.00
3758;DHT22;1894;51.038;13.692;2023-04-25T15:05:27;12.20;82.00
3758;DHT22;1894;51.038;13.692;2023-04-25T15:07:54;12.30;80.50
3758;DHT22;1894;51.038;13.692;2023-04-25T15:10:22;12.00;81.40
3758;DHT22;1894;51.038;13.692;2023-04-25T15:12:49;11.50;80.90
3758;DHT22;1894;51.038;13.692;2023-04-25T15:15:17;11.00;82.20
3758;DHT22;1894;51.038;13.692;2023-04-25T15:17:53;11.00;79.30
3758;DHT22;1894;51.038;13.692;2023-04-25T15:20:25;11.10;78.50
3758;DHT22;1894;51.038;13.692;2023-04-25T15:22:52;10.90;79.20
3758;DHT22;1894;51.038;13.692;2023-04-25T15:25:19;10.90;79.20
3758;DHT22;1894;51.038;13.692;2023-04-25T15:27:46;10.30;79.20
3758;DHT22;1894;51.038;13.692;2023-04-25T15:30:16;10.20;79.90
3758;DHT22;1894;51.038;13.692;2023-04-25T15:32:47;10.40;79.80
3758;DHT22;1894;51.038;13.692;2023-04-25T15:35:15;10.10;78.50
3758;DHT22;1894;51.038;13.692;2023-04-25T15:37:42;9.90;79.30
3758;DHT22;1894;51.038;13.692;2023-04-25T15:40:16;10.00;78.50
3758;DHT22;1894;51.038;13.692;2023-04-25T15:42:50;9.90;79.50
3758;DHT22;1894;51.038;13.692;2023-04-25T15:45:21;9.90;79.50
3758;DHT22;1894;51.038;13.692;2023-04-25T15:47:53;10.00;79.10
3758;DHT22;1894;51.038;13.692;2023-04-25T15:50:22;9.80;79.10
3758;DHT22;1894;51.038;13.692;2023-04-25T15:52:50;9.70;80.40
3758;DHT22;1894;51.038;13.692;2023-04-25T15:55:18;9.60;81.80
3758;DHT22;1894;51.038;13.692;2023-04-25T15:57:48;9.60;81.90
3758;DHT22;1894;51.038;13.692;2023-04-25T16:00:17;9.50;82.00
3758;DHT22;1894;51.038;13.692;2023-04-25T16:02:47;9.50;82.50
3758;DHT22;1894;51.038;13.692;2023-04-25T16:05:14;9.70;82.60
3758;DHT22;1894;51.038;13.692;2023-04-25T16:07:43;9.70;82.00
3758;DHT22;1894;51.038;13.692;2023-04-25T16:10:11;10.00;81.20
3758;DHT22;1894;51.038;13.692;2023-04-25T16:12:39;10.10;80.40
3758;DHT22;1894;51.038;13.692;2023-04-25T16:15:07;10.00;79.50
3758;DHT22;1894;51.038;13.692;2023-04-25T16:17:35;10.20;79.60
3758;DHT22;1894;51.038;13.692;2023-04-25T16:20:02;10.30;79.50
3758;DHT22;1894;51.038;13.692;2023-04-25T16:22:40;10.60;78.70
3758;DHT22;1894;51.038;13.692;2023-04-25T16:25:09;10.80;77.70
3758;DHT22;1894;51.038;13.692;2023-04-25T16:27:37;10.40;76.00
3758;DHT22;1894;51.038;13.692;2023-04-25T16:30:07;10.40;77.20